Time;durP1;ratioP1;P1;durP2;ratioP2;P2;SDS_P1;SDS_P2;PMS_P1;PMS_P2;Temp;Humidity;BMP_temperature;BMP_pressure;BME280_temperature;BME280_humidity;BME280_pressure;Samples;Min_cycle;Max_cycle;Signal;HPM_P1;HPM_P2
2023/11/05 00:01:02;;;;;;;13.90;2.20;;;;;;;;;;5033398;28;20576;-86
2023/11/05 00:03:29;;;;;;;6.63;2.10;;;;;;;;;;5033333;28;20237;-86
2023/11/05 00:05:56;;;;;;;11.73;2.80;;;;;;;;;;5033218;28;20724;-86
2023/11/05 00:08:25;;;;;;;16.13;2.67;;;;;;;;;;5032518;28;20201;-86
2023/11/05 00:10:52;;;;;;;13.70;2.47;;;;;;;;;;5032317;28;20231;-86
2023/11/05 00:13:20;;;;;;;12.93;2.10;;;;;;;;;;5033490;28;20233;-86
2023/11/05 00:15:51;;;;;;;12.57;2.23;;;;;;;;;;5032716;28;20224;-86
2023/11/05 00:18:18;;;;;;;14.87;2.30;;;;;;;;;;5032420;28;20200;-86
2023/11/05 00:20:46;;;;;;;9.83;2.23;;;;;;;;;;5032771;28;20723;-86
2023/11/05 00:23:13;;;;;;;12.57;1.90;;;;;;;;;;5033115;28;20192;-86
2023/11/05 00:25:42;;;;;;;12.50;2.33;;;;;;;;;;5031859;28;20254;-86
2023/11/05 00:28:09;;;;;;;11.50;1.70;;;;;;;;;;5032745;28;20227;-86
2023/11/05 00:30:38;;;;;;;9.67;1.77;;;;;;;;;;5032657;28;20816;-85
2023/11/05 00:33:06;;;;;;;10.33;1.83;;;;;;;;;;5032106;28;20197;-86
2023/11/05 00:35:33;;;;;;;11.40;1.90;;;;;;;;;;5032360;28;20207;-86
2023/11/05 00:38:00;;;;;;;10.83;1.70;;;;;;;;;;5032112;28;20227;-87
2023/11/05 00:40:29;;;;;;;8.30;1.70;;;;;;;;;;5032677;28;20205;-87
2023/11/05 00:42:58;;;;;;;8.63;1.80;;;;;;;;;;5032659;28;20210;-86
2023/11/05 00:45:25;;;;;;;10.97;2.00;;;;;;;;;;5032232;28;20290;-86
2023/11/05 00:47:52;;;;;;;7.80;1.80;;;;;;;;;;5032471;28;20200;-86
2023/11/05 00:50:20;;;;;;;8.03;1.80;;;;;;;;;;5031821;28;20263;-85
2023/11/05 00:52:47;;;;;;;11.00;2.10;;;;;;;;;;5031830;28;20251;-86
2023/11/05 00:55:15;;;;;;;9.50;1.97;;;;;;;;;;5032801;28;20204;-86
2023/11/05 00:57:42;;;;;;;13.67;2.50;;;;;;;;;;5031497;28;20577;-85
2023/11/05 01:00:13;;;;;;;12.83;2.13;;;;;;;;;;5031993;28;20242;-86
2023/11/05 01:02:40;;;;;;;9.00;1.80;;;;;;;;;;5031686;28;20203;-85
2023/11/05 01:05:08;;;;;;;10.30;1.67;;;;;;;;;;5031545;28;20239;-85
2023/11/05 01:07:35;;;;;;;12.20;2.20;;;;;;;;;;5031573;28;20283;-85
2023/11/05 01:10:02;;;;;;;9.33;1.57;;;;;;;;;;5031470;28;20223;-86
2023/11/05 01:12:29;;;;;;;10.03;1.40;;;;;;;;;;5031698;28;20228;-86
2023/11/05 01:14:57;;;;;;;10.37;1.60;;;;;;;;;;5031448;28;20273;-86
2023/11/05 01:17:25;;;;;;;8.03;1.73;;;;;;;;;;5031771;28;20220;-86
2023/11/05 01:19:52;;;;;;;11.40;2.30;;;;;;;;;;5031764;28;20625;-86
2023/11/05 01:22:20;;;;;;;9.50;2.00;;;;;;;;;;5031520;28;20275;-86
2023/11/05 01:24:47;;;;;;;15.73;1.93;;;;;;;;;;5031662;28;20224;-86
2023/11/05 01:27:14;;;;;;;8.90;1.60;;;;;;;;;;5031693;28;20193;-86
2023/11/05 01:29:41;;;;;;;8.00;1.83;;;;;;;;;;5032016;28;20200;-87
2023/11/05 01:32:09;;;;;;;11.70;1.90;;;;;;;;;;5031475;28;20236;-86
2023/11/05 01:34:37;;;;;;;8.17;1.43;;;;;;;;;;5031692;28;20300;-87
2023/11/05 01:37:05;;;;;;;9.37;1.53;;;;;;;;;;5031267;28;20205;-86
2023/11/05 01:39:32;;;;;;;9.43;1.67;;;;;;;;;;5031448;28;20608;-86
2023/11/05 01:41:59;;;;;;;10.53;1.70;;;;;;;;;;5031545;28;20291;-86
2023/11/05 01:44:26;;;;;;;6.90;1.30;;;;;;;;;;5033873;28;20673;-86
2023/11/05 01:46:54;;;;;;;7.87;1.40;;;;;;;;;;5035722;28;20403;-86
2023/11/05 01:49:21;;;;;;;11.30;2.03;;;;;;;;;;5035677;28;20275;-86
2023/11/05 01:51:50;;;;;;;11.03;1.60;;;;;;;;;;5034641;28;20665;-86
2023/11/05 01:54:17;;;;;;;7.90;1.47;;;;;;;;;;5035171;28;20240;-85
2023/11/05 01:56:44;;;;;;;9.30;1.80;;;;;;;;;;5035815;28;20224;-86
2023/11/05 01:59:12;;;;;;;6.87;1.80;;;;;;;;;;5035140;28;20338;-86
2023/11/05 02:01:40;;;;;;;9.17;2.60;;;;;;;;;;5035450;28;20631;-87
2023/11/05 02:04:08;;;;;;;9.40;1.70;;;;;;;;;;5035524;28;20234;-86
2023/11/05 02:06:35;;;;;;;10.07;1.83;;;;;;;;;;5034335;28;20228;-86
2023/11/05 02:09:05;;;;;;;5.03;1.60;;;;;;;;;;5035077;28;20744;-86
2023/11/05 02:11:32;;;;;;;10.43;2.67;;;;;;;;;;5035038;28;20239;-86
2023/11/05 02:13:59;;;;;;;11.33;2.03;;;;;;;;;;5034902;28;20295;-86
2023/11/05 02:16:31;;;;;;;8.53;2.27;;;;;;;;;;5034708;28;20211;-86
2023/11/05 02:18:58;;;;;;;7.20;1.57;;;;;;;;;;5034953;28;20197;-86
2023/11/05 02:21:27;;;;;;;9.30;2.60;;;;;;;;;;5034505;28;20287;-86
2023/11/05 02:23:56;;;;;;;8.33;1.67;;;;;;;;;;5035074;28;20204;-86
2023/11/05 02:26:24;;;;;;;9.13;2.00;;;;;;;;;;5034758;28;20255;-86
2023/11/05 02:28:51;;;;;;;7.60;1.90;;;;;;;;;;5034676;28;20736;-87
2023/11/05 02:31:18;;;;;;;7.93;1.90;;;;;;;;;;5034243;28;20639;-86
2023/11/05 02:33:46;;;;;;;4.97;1.40;;;;;;;;;;5034912;28;20581;-86
2023/11/05 02:36:13;;;;;;;6.93;1.47;;;;;;;;;;5034973;28;20228;-86
2023/11/05 02:38:40;;;;;;;5.00;1.23;;;;;;;;;;5034592;28;20200;-86
2023/11/05 02:41:10;;;;;;;7.03;1.20;;;;;;;;;;5034517;28;20239;-86
2023/11/05 02:43:38;;;;;;;6.63;1.07;;;;;;;;;;5034767;28;20202;-86
2023/11/05 02:46:06;;;;;;;8.57;1.60;;;;;;;;;;5034932;28;20224;-86
2023/11/05 02:48:33;;;;;;;5.50;1.50;;;;;;;;;;5033837;28;20200;-86
2023/11/05 02:51:01;;;;;;;6.80;1.30;;;;;;;;;;5034434;28;20565;-87
2023/11/05 02:53:28;;;;;;;6.97;1.67;;;;;;;;;;5034191;28;20239;-87
2023/11/05 02:55:55;;;;;;;5.73;1.30;;;;;;;;;;5034007;28;20291;-85
2023/11/05 02:58:24;;;;;;;7.63;1.50;;;;;;;;;;5033993;28;20228;-86
2023/11/05 03:00:51;;;;;;;10.43;1.87;;;;;;;;;;5034335;28;20196;-86
2023/11/05 03:03:18;;;;;;;7.03;1.33;;;;;;;;;;5033832;28;20287;-86
2023/11/05 03:05:45;;;;;;;5.43;1.13;;;;;;;;;;5033974;28;20337;-85
2023/11/05 03:08:13;;;;;;;7.33;1.70;;;;;;;;;;5033995;28;20287;-86
2023/11/05 03:10:40;;;;;;;9.50;1.17;;;;;;;;;;5034360;28;20279;-86
2023/11/05 03:13:08;;;;;;;5.87;1.30;;;;;;;;;;5034171;28;20273;-86
2023/11/05 03:15:36;;;;;;;6.93;1.27;;;;;;;;;;5033882;28;20283;-86
2023/11/05 03:18:04;;;;;;;8.23;1.33;;;;;;;;;;5034244;28;20204;-86
2023/11/05 03:20:31;;;;;;;5.07;1.03;;;;;;;;;;5033342;28;20239;-85
2023/11/05 03:22:59;;;;;;;6.53;0.93;;;;;;;;;;5034027;28;20235;-86
2023/11/05 03:25:26;;;;;;;7.77;1.20;;;;;;;;;;5033827;28;20227;-86
2023/11/05 03:27:54;;;;;;;6.57;1.00;;;;;;;;;;5033637;28;20207;-86
2023/11/05 03:30:21;;;;;;;5.20;1.07;;;;;;;;;;5032706;28;20224;-86
2023/11/05 03:32:49;;;;;;;7.03;1.00;;;;;;;;;;5024514;28;20205;-85
2023/11/05 03:35:17;;;;;;;7.00;1.07;;;;;;;;;;5043579;28;20305;-85
2023/11/05 03:37:44;;;;;;;2.10;0.87;;;;;;;;;;5035348;28;20195;-86
2023/11/05 03:40:12;;;;;;;5.27;0.97;;;;;;;;;;5053568;28;20291;-85
2023/11/05 03:42:39;;;;;;;3.80;1.00;;;;;;;;;;5053609;28;20656;-86
2023/11/05 03:45:07;;;;;;;5.77;1.20;;;;;;;;;;5053864;28;21055;-86
2023/11/05 03:47:35;;;;;;;7.70;1.50;;;;;;;;;;5052847;28;20234;-86
2023/11/05 03:50:04;;;;;;;2.67;0.70;;;;;;;;;;5053155;28;20196;-86
2023/11/05 03:52:31;;;;;;;4.73;1.47;;;;;;;;;;5052824;28;20204;-85
2023/11/05 03:54:59;;;;;;;6.40;0.97;;;;;;;;;;5053673;28;20226;-86
2023/11/05 03:57:26;;;;;;;3.83;0.93;;;;;;;;;;5053297;28;20759;-86
2023/11/05 03:59:53;;;;;;;3.87;0.87;;;;;;;;;;5052851;28;20279;-85
2023/11/05 04:02:22;;;;;;;4.93;1.00;;;;;;;;;;5051881;28;20318;-86
2023/11/05 04:04:51;;;;;;;3.87;1.03;;;;;;;;;;5052936;28;20668;-86
2023/11/05 04:07:19;;;;;;;3.53;0.90;;;;;;;;;;5051911;28;20318;-86
2023/11/05 04:09:47;;;;;;;4.90;0.90;;;;;;;;;;5053566;28;20199;-86
2023/11/05 04:12:14;;;;;;;6.67;1.63;;;;;;;;;;5053226;28;20215;-86
2023/11/05 04:14:41;;;;;;;3.93;0.90;;;;;;;;;;5052748;28;20204;-86
2023/11/05 04:17:08;;;;;;;6.10;0.90;;;;;;;;;;5052276;28;20238;-86
2023/11/05 04:19:35;;;;;;;5.87;1.00;;;;;;;;;;5035809;28;20196;-86
2023/11/05 04:22:03;;;;;;;6.50;1.33;;;;;;;;;;5033183;28;20255;-86
2023/11/05 04:24:31;;;;;;;4.77;1.33;;;;;;;;;;5032706;28;20283;-86
2023/11/05 04:26:58;;;;;;;6.33;1.33;;;;;;;;;;5032383;28;20258;-85
2023/11/05 04:29:26;;;;;;;6.53;0.90;;;;;;;;;;5032926;28;20288;-85
2023/11/05 04:31:55;;;;;;;7.53;1.40;;;;;;;;;;5031749;28;20240;-86
2023/11/05 04:34:23;;;;;;;8.83;1.20;;;;;;;;;;5032342;28;20204;-86
2023/11/05 04:36:50;;;;;;;6.80;1.20;;;;;;;;;;5032644;28;20234;-86
2023/11/05 04:39:17;;;;;;;7.83;1.13;;;;;;;;;;5032267;28;20673;-86
2023/11/05 04:41:46;;;;;;;8.23;1.33;;;;;;;;;;5032192;28;20260;-86
2023/11/05 04:44:14;;;;;;;5.20;1.33;;;;;;;;;;5031387;28;20200;-85
2023/11/05 04:46:41;;;;;;;8.17;1.07;;;;;;;;;;5031631;28;20267;-84
2023/11/05 04:49:08;;;;;;;7.40;1.27;;;;;;;;;;5031988;28;20192;-85
2023/11/05 04:51:35;;;;;;;9.53;1.40;;;;;;;;;;5032122;28;20201;-85
2023/11/05 04:54:03;;;;;;;10.97;2.00;;;;;;;;;;5031892;28;20282;-85
2023/11/05 04:56:30;;;;;;;6.47;1.20;;;;;;;;;;5031468;28;20212;-84
2023/11/05 04:58:58;;;;;;;7.50;1.40;;;;;;;;;;5031360;28;20653;-84
2023/11/05 05:01:26;;;;;;;6.17;1.10;;;;;;;;;;5032268;28;20283;-86
2023/11/05 05:03:53;;;;;;;8.70;1.47;;;;;;;;;;5031398;28;20691;-85
2023/11/05 05:06:21;;;;;;;9.63;2.00;;;;;;;;;;5031966;28;20708;-85
2023/11/05 05:08:48;;;;;;;10.37;1.63;;;;;;;;;;5031482;28;20656;-84
2023/11/05 05:11:15;;;;;;;9.60;1.97;;;;;;;;;;5031143;28;20653;-85
2023/11/05 05:13:43;;;;;;;7.23;1.60;;;;;;;;;;5031213;28;20197;-85
2023/11/05 05:16:12;;;;;;;7.90;1.43;;;;;;;;;;5031929;28;20203;-85
2023/11/05 05:18:40;;;;;;;10.67;1.80;;;;;;;;;;5031398;28;20193;-86
2023/11/05 05:21:07;;;;;;;8.47;1.50;;;;;;;;;;5031352;28;20201;-85
2023/11/05 05:23:35;;;;;;;9.50;2.10;;;;;;;;;;5031711;28;20292;-85
2023/11/05 05:26:03;;;;;;;7.63;2.00;;;;;;;;;;5031636;28;20204;-85
2023/11/05 05:28:30;;;;;;;9.97;1.60;;;;;;;;;;5031903;28;20197;-85
2023/11/05 05:30:57;;;;;;;9.63;2.10;;;;;;;;;;5031089;28;20224;-86
2023/11/05 05:33:27;;;;;;;7.50;1.97;;;;;;;;;;5031582;28;20224;-86
2023/11/05 05:35:54;;;;;;;9.63;1.90;;;;;;;;;;5011675;28;20228;-85
2023/11/05 05:38:21;;;;;;;12.50;2.07;;;;;;;;;;5011908;28;20236;-85
2023/11/05 05:40:49;;;;;;;10.27;1.97;;;;;;;;;;5011979;28;20280;-86
2023/11/05 05:43:16;;;;;;;10.93;2.10;;;;;;;;;;5011462;28;20197;-86
2023/11/05 05:45:44;;;;;;;7.37;1.97;;;;;;;;;;5011712;28;20197;-85
2023/11/05 05:48:11;;;;;;;11.33;2.13;;;;;;;;;;5011772;28;20225;-86
2023/11/05 05:50:40;;;;;;;9.50;1.60;;;;;;;;;;5018138;28;20283;-85
2023/11/05 05:53:07;;;;;;;8.60;2.00;;;;;;;;;;5011884;28;20240;-85
2023/11/05 05:55:35;;;;;;;9.03;1.70;;;;;;;;;;5011742;28;20232;-85
2023/11/05 05:58:02;;;;;;;10.10;1.83;;;;;;;;;;5011374;28;20204;-85
2023/11/05 06:00:29;;;;;;;6.87;1.60;;;;;;;;;;5011489;28;20246;-86
2023/11/05 06:02:56;;;;;;;10.90;2.20;;;;;;;;;;5011341;28;20291;-86
2023/11/05 06:05:24;;;;;;;11.10;2.03;;;;;;;;;;5011921;28;20197;-86
2023/11/05 06:07:53;;;;;;;9.50;1.90;;;;;;;;;;5011578;28;20225;-86
2023/11/05 06:10:20;;;;;;;11.87;2.60;;;;;;;;;;5011029;28;20236;-86
2023/11/05 06:12:47;;;;;;;12.47;2.47;;;;;;;;;;5011612;28;20197;-85
2023/11/05 06:15:14;;;;;;;11.97;2.70;;;;;;;;;;5011411;28;20636;-87
2023/11/05 06:17:41;;;;;;;10.73;2.07;;;;;;;;;;5011335;28;20293;-86
2023/11/05 06:20:09;;;;;;;11.30;2.50;;;;;;;;;;5011811;28;20205;-86
2023/11/05 06:22:37;;;;;;;8.10;2.50;;;;;;;;;;5011233;28;20229;-85
2023/11/05 06:25:06;;;;;;;12.17;2.93;;;;;;;;;;5011160;28;20207;-86
2023/11/05 06:27:34;;;;;;;11.17;3.43;;;;;;;;;;5011008;28;20229;-84
2023/11/05 06:30:03;;;;;;;12.40;2.97;;;;;;;;;;5011325;28;20236;-86
2023/11/05 06:32:30;;;;;;;10.17;2.37;;;;;;;;;;5015019;28;20658;-85
2023/11/05 06:34:58;;;;;;;10.20;2.83;;;;;;;;;;5026766;28;20240;-86
2023/11/05 06:37:25;;;;;;;12.37;2.53;;;;;;;;;;5034765;28;20307;-86
2023/11/05 06:39:52;;;;;;;10.90;2.60;;;;;;;;;;5034385;28;20232;-86
2023/11/05 06:42:21;;;;;;;9.20;2.57;;;;;;;;;;5034198;28;20631;-85
2023/11/05 06:44:48;;;;;;;12.43;2.50;;;;;;;;;;5034458;28;20197;-85
2023/11/05 06:47:15;;;;;;;12.80;2.87;;;;;;;;;;5034960;28;20318;-85
2023/11/05 06:49:43;;;;;;;11.13;2.80;;;;;;;;;;5034645;28;20255;-85
2023/11/05 06:52:10;;;;;;;10.00;2.77;;;;;;;;;;5034605;28;20224;-86
2023/11/05 06:54:39;;;;;;;10.30;2.67;;;;;;;;;;5034409;28;20280;-86
2023/11/05 06:57:07;;;;;;;7.60;2.10;;;;;;;;;;5034419;28;20233;-86
2023/11/05 06:59:36;;;;;;;11.83;3.20;;;;;;;;;;5033920;28;20235;-86
2023/11/05 07:02:03;;;;;;;11.80;2.80;;;;;;;;;;5033855;28;20196;-87
2023/11/05 07:04:31;;;;;;;12.50;2.77;;;;;;;;;;5034062;28;20287;-86
2023/11/05 07:06:59;;;;;;;12.17;3.10;;;;;;;;;;5034230;28;20231;-86
2023/11/05 07:09:27;;;;;;;10.40;3.07;;;;;;;;;;5033944;28;20193;-86
2023/11/05 07:11:54;;;;;;;11.30;3.13;;;;;;;;;;5033756;28;20287;-86
2023/11/05 07:14:21;;;;;;;11.07;2.63;;;;;;;;;;5034091;28;20200;-86
2023/11/05 07:16:50;;;;;;;11.93;2.87;;;;;;;;;;5034043;28;20291;-86
2023/11/05 07:19:18;;;;;;;12.73;3.00;;;;;;;;;;5033933;28;20641;-85
2023/11/05 07:21:46;;;;;;;11.87;2.90;;;;;;;;;;5033903;28;20569;-86
2023/11/05 07:24:14;;;;;;;14.13;3.10;;;;;;;;;;5033547;28;20568;-86
2023/11/05 07:26:43;;;;;;;10.90;2.80;;;;;;;;;;5033905;28;20224;-86
2023/11/05 07:29:12;;;;;;;11.90;2.63;;;;;;;;;;5034137;28;20193;-86
2023/11/05 07:31:39;;;;;;;11.03;2.50;;;;;;;;;;5033231;28;20708;-86
2023/11/05 07:34:10;;;;;;;12.33;2.60;;;;;;;;;;5034680;28;20593;-86
2023/11/05 07:36:38;;;;;;;12.07;2.63;;;;;;;;;;5033438;28;20227;-86
2023/11/05 07:39:07;;;;;;;11.93;2.70;;;;;;;;;;5033162;28;20204;-86
2023/11/05 07:41:34;;;;;;;10.63;2.50;;;;;;;;;;5033130;28;20243;-87
2023/11/05 07:44:02;;;;;;;12.77;2.90;;;;;;;;;;5033823;28;20203;-85
2023/11/05 07:46:30;;;;;;;16.03;3.13;;;;;;;;;;5033581;28;20208;-85
2023/11/05 07:48:58;;;;;;;9.73;2.83;;;;;;;;;;5033010;28;20323;-86
2023/11/05 07:51:27;;;;;;;10.77;2.50;;;;;;;;;;5033047;28;20192;-86
2023/11/05 07:53:54;;;;;;;9.20;2.50;;;;;;;;;;5032799;28;20196;-86
2023/11/05 07:56:21;;;;;;;13.73;3.13;;;;;;;;;;5033198;28;20220;-86
2023/11/05 07:58:50;;;;;;;10.60;3.20;;;;;;;;;;5032809;28;20258;-86
2023/11/05 08:01:17;;;;;;;10.88;3.05;;;;;;;;;;5032894;28;20653;-86
2023/11/05 08:03:44;;;;;;;10.38;2.83;;;;;;;;;;5033092;28;20192;-86
2023/11/05 08:06:12;;;;;;;7.22;2.50;;;;;;;;;;5032833;28;20279;-81
2023/11/05 08:08:41;;;;;;;8.05;2.38;;;;;;;;;;5031986;28;20326;-84
2023/11/05 08:11:08;;;;;;;11.07;2.75;;;;;;;;;;5032329;28;20200;-82
2023/11/05 08:13:35;;;;;;;12.80;2.95;;;;;;;;;;5032462;28;20228;-83
2023/11/05 08:16:03;;;;;;;10.88;2.92;;;;;;;;;;5032344;28;20204;-83
2023/11/05 08:18:30;;;;;;;9.70;2.83;;;;;;;;;;5032294;28;20562;-83
2023/11/05 08:20:57;;;;;;;8.98;2.40;;;;;;;;;;5032332;28;20677;-82
2023/11/05 08:23:24;;;;;;;8.65;2.20;;;;;;;;;;5031795;28;20692;-83
2023/11/05 08:25:53;;;;;;;7.68;2.42;;;;;;;;;;5032282;28;20282;-83
2023/11/05 08:28:21;;;;;;;9.50;2.80;;;;;;;;;;5032031;28;20259;-83
2023/11/05 08:30:48;;;;;;;9.55;2.70;;;;;;;;;;5031755;28;20232;-82
2023/11/05 08:33:15;;;;;;;9.88;2.80;;;;;;;;;;5032137;28;20280;-82
2023/11/05 08:35:43;;;;;;;10.05;2.60;;;;;;;;;;5032019;28;20204;-82
2023/11/05 08:38:10;;;;;;;10.88;2.50;;;;;;;;;;5031996;28;20192;-81
2023/11/05 08:40:37;;;;;;;8.52;2.67;;;;;;;;;;5032131;28;20199;-81
2023/11/05 08:43:06;;;;;;;10.73;2.42;;;;;;;;;;5031405;28;20296;-81
2023/11/05 08:45:33;;;;;;;9.90;2.78;;;;;;;;;;5032538;28;20201;-80
2023/11/05 08:48:00;;;;;;;8.10;2.72;;;;;;;;;;5044567;28;20719;-81
2023/11/05 08:50:27;;;;;;;6.55;2.33;;;;;;;;;;5051517;28;20208;-81
2023/11/05 08:52:54;;;;;;;8.93;2.90;;;;;;;;;;5050909;28;20223;-82
2023/11/05 08:55:28;;;;;;;9.77;2.85;;;;;;;;;;5051764;28;20207;-80
2023/11/05 08:57:55;;;;;;;9.35;3.78;;;;;;;;;;5051449;28;20235;-81
2023/11/05 09:00:24;;;;;;;8.27;2.50;;;;;;;;;;5051428;28;20622;-81
2023/11/05 09:02:52;;;;;;;6.03;1.98;;;;;;;;;;5051438;28;20202;-81
2023/11/05 09:05:22;;;;;;;8.50;2.70;;;;;;;;;;5051470;28;20246;-81
2023/11/05 09:07:49;;;;;;;9.50;2.67;;;;;;;;;;5051298;28;20723;-82
2023/11/05 09:10:17;;;;;;;7.28;2.10;;;;;;;;;;5043297;28;20219;-81
2023/11/05 09:12:44;;;;;;;8.93;2.70;;;;;;;;;;5029498;28;20294;-82
2023/11/05 09:15:11;;;;;;;10.85;2.72;;;;;;;;;;5031082;28;20203;-82
2023/11/05 09:17:40;;;;;;;6.25;2.22;;;;;;;;;;5031398;28;20245;-81
2023/11/05 09:20:08;;;;;;;7.88;2.15;;;;;;;;;;5028103;28;20205;-81
2023/11/05 09:22:36;;;;;;;7.75;2.17;;;;;;;;;;5030569;28;20204;-81
2023/11/05 09:25:04;;;;;;;8.23;2.00;;;;;;;;;;5031918;28;20203;-81
2023/11/05 09:27:31;;;;;;;9.13;2.50;;;;;;;;;;5030231;28;20327;-82
2023/11/05 09:29:59;;;;;;;8.23;2.05;;;;;;;;;;5040362;28;20667;-81
2023/11/05 09:32:26;;;;;;;8.25;2.33;;;;;;;;;;5040594;28;20283;-81
2023/11/05 09:34:55;;;;;;;10.65;2.10;;;;;;;;;;5045816;28;20242;-81
2023/11/05 09:37:22;;;;;;;7.53;2.20;;;;;;;;;;5040301;28;20676;-80
2023/11/05 09:39:49;;;;;;;8.48;1.90;;;;;;;;;;5031620;28;20779;-81
2023/11/05 09:42:17;;;;;;;6.97;1.85;;;;;;;;;;5018527;28;20215;-81
2023/11/05 09:44:44;;;;;;;6.07;1.75;;;;;;;;;;5041705;28;20204;-81
2023/11/05 09:47:12;;;;;;;8.65;1.73;;;;;;;;;;5037398;28;20231;-84
2023/11/05 09:49:40;;;;;;;5.40;1.90;;;;;;;;;;5032786;28;20315;-85
2023/11/05 09:52:13;;;;;;;8.77;2.10;;;;;;;;;;5036948;28;20926;-84
2023/11/05 09:54:43;;;;;;;6.03;1.80;;;;;;;;;;5044273;28;20247;-84
2023/11/05 09:57:10;;;;;;;8.98;1.50;;;;;;;;;;5044658;28;20200;-84
2023/11/05 09:59:45;;;;;;;5.07;1.45;;;;;;;;;;5044943;28;20972;-85
2023/11/05 10:02:13;;;;;;;4.47;1.50;;;;;;;;;;5035701;28;20220;-84
2023/11/05 10:04:41;;;;;;;5.00;1.40;;;;;;;;;;5040036;28;20204;-84
2023/11/05 10:07:09;;;;;;;5.25;1.73;;;;;;;;;;5040137;28;20188;-83
2023/11/05 10:09:38;;;;;;;8.88;1.90;;;;;;;;;;5044660;28;20224;-81
2023/11/05 10:12:05;;;;;;;7.97;1.70;;;;;;;;;;5035245;28;20655;-83
2023/11/05 10:14:33;;;;;;;4.38;1.27;;;;;;;;;;5034921;28;20612;-83
2023/11/05 10:17:00;;;;;;;6.30;1.60;;;;;;;;;;5041701;28;20669;-82
2023/11/05 10:19:27;;;;;;;5.20;1.67;;;;;;;;;;5041988;28;20206;-82
2023/11/05 10:21:54;;;;;;;5.03;1.60;;;;;;;;;;5042050;28;20196;-83
2023/11/05 10:24:40;;;;;;;4.70;1.73;;;;;;;;;;5049607;28;20666;-83
2023/11/05 10:27:09;;;;;;;5.53;1.20;;;;;;;;;;5037637;28;20286;-84
2023/11/05 10:29:37;;;;;;;5.10;1.67;;;;;;;;;;5040608;28;20308;-83
2023/11/05 10:32:05;;;;;;;6.97;2.03;;;;;;;;;;5034239;28;20196;-81
2023/11/05 10:34:34;;;;;;;5.75;1.35;;;;;;;;;;5030955;28;20219;-82
2023/11/05 10:37:01;;;;;;;8.07;1.65;;;;;;;;;;5033338;28;20688;-81
2023/11/05 10:39:29;;;;;;;6.43;1.70;;;;;;;;;;5030639;28;20646;-82
2023/11/05 10:41:56;;;;;;;4.75;1.70;;;;;;;;;;5035523;28;20212;-82
2023/11/05 10:44:25;;;;;;;5.18;1.40;;;;;;;;;;5042522;28;20262;-82
2023/11/05 10:46:56;;;;;;;7.60;1.50;;;;;;;;;;5034126;28;20291;-79
2023/11/05 10:49:24;;;;;;;5.72;1.65;;;;;;;;;;5033971;28;20270;-80
2023/11/05 10:51:51;;;;;;;6.32;1.70;;;;;;;;;;5033471;28;20821;-78
2023/11/05 10:54:18;;;;;;;5.90;1.55;;;;;;;;;;5034040;28;20665;-80
2023/11/05 10:56:46;;;;;;;7.72;1.55;;;;;;;;;;5033947;28;20200;-79
2023/11/05 10:59:14;;;;;;;7.00;1.75;;;;;;;;;;5033744;28;20217;-80
2023/11/05 11:01:43;;;;;;;5.30;1.42;;;;;;;;;;5033689;28;20286;-79
2023/11/05 11:04:15;;;;;;;4.80;1.73;;;;;;;;;;5034089;28;20217;-80
2023/11/05 11:06:42;;;;;;;6.63;1.63;;;;;;;;;;5033666;28;20200;-79
2023/11/05 11:09:11;;;;;;;8.75;1.52;;;;;;;;;;5033465;28;20319;-80
2023/11/05 11:11:40;;;;;;;5.65;1.30;;;;;;;;;;5033717;28;20254;-80
2023/11/05 11:14:08;;;;;;;8.90;3.70;;;;;;;;;;5033764;28;20207;-80
2023/11/05 11:16:36;;;;;;;7.50;1.55;;;;;;;;;;5032776;28;20287;-80
2023/11/05 11:19:13;;;;;;;4.20;1.30;;;;;;;;;;5033797;28;20292;-79
2023/11/05 11:21:44;;;;;;;4.82;1.58;;;;;;;;;;5033527;28;20192;-79
2023/11/05 11:24:29;;;;;;;6.10;1.52;;;;;;;;;;5033671;28;20196;-80
2023/11/05 11:26:59;;;;;;;6.68;1.80;;;;;;;;;;5033583;28;20251;-80
2023/11/05 11:29:26;;;;;;;5.70;1.40;;;;;;;;;;5033080;28;20318;-78
2023/11/05 11:31:53;;;;;;;6.13;1.55;;;;;;;;;;5032869;28;20327;-80
2023/11/05 11:34:22;;;;;;;5.40;1.65;;;;;;;;;;5033146;28;20291;-80
2023/11/05 11:37:04;;;;;;;7.30;1.52;;;;;;;;;;5033577;28;20243;-80
2023/11/05 11:39:32;;;;;;;5.20;1.33;;;;;;;;;;5032237;28;20561;-79
2023/11/05 11:42:00;;;;;;;5.78;1.50;;;;;;;;;;5033356;28;20275;-81
2023/11/05 11:44:27;;;;;;;5.70;2.00;;;;;;;;;;5033232;28;20850;-81
2023/11/05 11:46:54;;;;;;;6.00;1.85;;;;;;;;;;5032745;28;20196;-80
2023/11/05 11:49:28;;;;;;;8.88;2.10;;;;;;;;;;5033031;28;20259;-80
2023/11/05 11:51:55;;;;;;;9.40;1.70;;;;;;;;;;5033025;28;20201;-80
2023/11/05 11:54:25;;;;;;;9.07;1.55;;;;;;;;;;5033135;28;20224;-81
2023/11/05 11:56:52;;;;;;;8.65;1.60;;;;;;;;;;5032938;28;20197;-80
2023/11/05 11:59:23;;;;;;;5.70;1.60;;;;;;;;;;5032877;28;20243;-81
2023/11/05 12:01:51;;;;;;;6.85;1.70;;;;;;;;;;5032799;28;20207;-79
2023/11/05 12:04:18;;;;;;;4.80;1.33;;;;;;;;;;5032506;28;20750;-80
2023/11/05 12:06:48;;;;;;;5.82;1.50;;;;;;;;;;5032566;28;20291;-80
2023/11/05 12:09:22;;;;;;;5.15;1.33;;;;;;;;;;5032664;28;20285;-80
2023/11/05 12:11:49;;;;;;;6.50;1.38;;;;;;;;;;5032373;28;20228;-79
2023/11/05 12:14:21;;;;;;;4.68;1.30;;;;;;;;;;5032410;28;20268;-80
2023/11/05 12:16:48;;;;;;;5.30;1.15;;;;;;;;;;5032597;28;20243;-80
2023/11/05 12:19:15;;;;;;;6.05;1.50;;;;;;;;;;5032239;28;20250;-80
2023/11/05 12:21:45;;;;;;;7.13;1.20;;;;;;;;;;5032639;28;20202;-81
2023/11/05 12:24:15;;;;;;;5.72;1.20;;;;;;;;;;5032267;28;20196;-80
2023/11/05 12:26:42;;;;;;;5.45;1.45;;;;;;;;;;5031910;28;20196;-80
2023/11/05 12:29:11;;;;;;;4.22;1.25;;;;;;;;;;5031060;28;20268;-81
2023/11/05 12:31:38;;;;;;;6.50;1.25;;;;;;;;;;5031855;28;20236;-79
2023/11/05 12:34:06;;;;;;;5.75;1.40;;;;;;;;;;5032403;28;20291;-80
2023/11/05 12:36:33;;;;;;;4.00;0.95;;;;;;;;;;5031879;28;20296;-81
2023/11/05 12:39:00;;;;;;;3.72;1.30;;;;;;;;;;5031991;28;20688;-80
2023/11/05 12:41:29;;;;;;;5.95;1.30;;;;;;;;;;5032126;28;20258;-80
2023/11/05 12:43:56;;;;;;;4.90;1.30;;;;;;;;;;5031437;28;20208;-81
2023/11/05 12:46:24;;;;;;;5.43;1.20;;;;;;;;;;5031919;28;20243;-80
2023/11/05 12:48:51;;;;;;;2.13;0.90;;;;;;;;;;5032139;28;20224;-81
2023/11/05 12:51:18;;;;;;;5.55;1.45;;;;;;;;;;5031629;28;20250;-80
2023/11/05 12:53:45;;;;;;;4.32;1.33;;;;;;;;;;5031689;28;20734;-81
2023/11/05 12:56:13;;;;;;;3.95;1.30;;;;;;;;;;5031397;28;20716;-80
2023/11/05 12:58:41;;;;;;;5.20;1.20;;;;;;;;;;5031796;28;20232;-80
2023/11/05 13:01:10;;;;;;;5.20;1.35;;;;;;;;;;5031804;28;20642;-80
2023/11/05 13:03:38;;;;;;;3.17;1.20;;;;;;;;;;5031184;28;20601;-80
2023/11/05 13:06:06;;;;;;;5.50;1.40;;;;;;;;;;5031658;28;20203;-81
2023/11/05 13:08:33;;;;;;;8.30;1.52;;;;;;;;;;5031394;28;20200;-80
2023/11/05 13:11:04;;;;;;;3.25;0.90;;;;;;;;;;5031579;28;20224;-81
2023/11/05 13:13:31;;;;;;;6.05;1.50;;;;;;;;;;5030910;28;20283;-80
2023/11/05 13:16:00;;;;;;;4.22;1.73;;;;;;;;;;5031393;28;20200;-80
2023/11/05 13:18:27;;;;;;;6.47;1.73;;;;;;;;;;5031140;28;20207;-80
2023/11/05 13:20:54;;;;;;;5.03;1.38;;;;;;;;;;5031115;28;20777;-80
2023/11/05 13:23:21;;;;;;;3.53;0.90;;;;;;;;;;5031345;28;20287;-80
2023/11/05 13:25:49;;;;;;;4.70;1.13;;;;;;;;;;5031148;28;20230;-80
2023/11/05 13:28:16;;;;;;;7.15;1.52;;;;;;;;;;5031089;28;20287;-80
2023/11/05 13:30:44;;;;;;;5.47;1.05;;;;;;;;;;5031281;28;20240;-80
2023/11/05 13:33:14;;;;;;;4.68;1.70;;;;;;;;;;5031256;28;20258;-80
2023/11/05 13:35:44;;;;;;;6.40;1.95;;;;;;;;;;5031068;28;20680;-80
2023/11/05 13:38:11;;;;;;;5.50;1.58;;;;;;;;;;5031173;28;20200;-81
2023/11/05 13:40:38;;;;;;;4.97;1.30;;;;;;;;;;5033578;28;20574;-80
2023/11/05 13:43:06;;;;;;;9.00;1.35;;;;;;;;;;5035325;28;20647;-80
2023/11/05 13:45:33;;;;;;;6.00;1.13;;;;;;;;;;5035230;28;20220;-80
2023/11/05 13:48:00;;;;;;;4.28;0.90;;;;;;;;;;5035214;28;20250;-79
2023/11/05 13:50:28;;;;;;;5.40;1.10;;;;;;;;;;5035159;28;20272;-80
2023/11/05 13:52:56;;;;;;;5.07;1.30;;;;;;;;;;5035308;28;20228;-80
2023/11/05 13:55:23;;;;;;;3.53;1.08;;;;;;;;;;5035098;28;20254;-80
2023/11/05 13:57:51;;;;;;;4.78;1.10;;;;;;;;;;5035052;28;20200;-80
2023/11/05 14:00:19;;;;;;;7.10;1.05;;;;;;;;;;5035037;28;20207;-81
2023/11/05 14:02:46;;;;;;;5.35;1.00;;;;;;;;;;5035179;28;20201;-80
2023/11/05 14:05:14;;;;;;;3.97;0.98;;;;;;;;;;5034936;28;20200;-81
2023/11/05 14:07:42;;;;;;;4.18;1.00;;;;;;;;;;5035141;28;20226;-80
2023/11/05 14:10:11;;;;;;;4.78;1.20;;;;;;;;;;5034093;28;20280;-81
2023/11/05 14:12:39;;;;;;;5.78;1.35;;;;;;;;;;5034789;28;20228;-80
2023/11/05 14:15:08;;;;;;;5.32;1.20;;;;;;;;;;5034426;28;20698;-81
2023/11/05 14:17:35;;;;;;;6.13;1.65;;;;;;;;;;5034772;28;20232;-80
2023/11/05 14:20:05;;;;;;;7.90;1.40;;;;;;;;;;5034608;28;20287;-80
2023/11/05 14:22:32;;;;;;;6.60;1.20;;;;;;;;;;5035178;28;20204;-80
2023/11/05 14:25:01;;;;;;;6.38;1.45;;;;;;;;;;5034208;28;20292;-79
2023/11/05 14:27:28;;;;;;;7.20;1.60;;;;;;;;;;5034408;28;20692;-80
2023/11/05 14:29:56;;;;;;;9.05;1.85;;;;;;;;;;5034858;28;20322;-80
2023/11/05 14:32:23;;;;;;;7.45;1.50;;;;;;;;;;5034313;28;20192;-79
2023/11/05 14:34:50;;;;;;;8.60;1.92;;;;;;;;;;5034420;28;20239;-80
2023/11/05 14:37:17;;;;;;;7.72;1.60;;;;;;;;;;5034433;28;20668;-79
2023/11/05 14:39:44;;;;;;;9.45;2.05;;;;;;;;;;5034206;28;20717;-80
2023/11/05 14:42:13;;;;;;;6.15;1.63;;;;;;;;;;5034256;28;20673;-79
2023/11/05 14:44:40;;;;;;;7.38;1.60;;;;;;;;;;5034646;28;20287;-80